sensor_id;sensor_type;location;lat;lon;timestamp;P1;P2;P0
40947;PMS5003;49382;-25.924;28.194;2023-05-07T00:00:14;45;44;
40947;PMS5003;49382;-25.924;28.194;2023-05-07T00:02:39;50;49;
40947;PMS5003;49382;-25.924;28.194;2023-05-07T00:05:05;51;48;
40947;PMS5003;49382;-25.924;28.194;2023-05-07T00:07:30;45;45;
40947;PMS5003;49382;-25.924;28.194;2023-05-07T00:09:55;51;48;
40947;PMS5003;49382;-25.924;28.194;2023-05-07T00:12:20;46;45;
40947;PMS5003;49382;-25.924;28.194;2023-05-07T00:14:46;51;50;
40947;PMS5003;49382;-25.924;28.194;2023-05-07T00:17:11;51;47;
40947;PMS5003;49382;-25.924;28.194;2023-05-07T00:19:37;45;44;
40947;PMS5003;49382;-25.924;28.194;2023-05-07T00:22:02;50;47;
40947;PMS5003;49382;-25.924;28.194;2023-05-07T00:24:27;46;45;
40947;PMS5003;49382;-25.924;28.194;2023-05-07T00:26:53;46;44;
40947;PMS5003;49382;-25.924;28.194;2023-05-07T00:29:18;43;41;
40947;PMS5003;49382;-25.924;28.194;2023-05-07T00:31:44;47;44;
40947;PMS5003;49382;-25.924;28.194;2023-05-07T00:34:09;51;45;
40947;PMS5003;49382;-25.924;28.194;2023-05-07T00:36:35;44;42;
40947;PMS5003;49382;-25.924;28.194;2023-05-07T00:39:00;45;44;
40947;PMS5003;49382;-25.924;28.194;2023-05-07T00:41:26;45;42;
40947;PMS5003;49382;-25.924;28.194;2023-05-07T00:43:51;46;45;
40947;PMS5003;49382;-25.924;28.194;2023-05-07T00:46:16;45;44;
40947;PMS5003;49382;-25.924;28.194;2023-05-07T00:48:42;44;42;
40947;PMS5003;49382;-25.924;28.194;2023-05-07T00:51:07;47;45;
40947;PMS5003;49382;-25.924;28.194;2023-05-07T00:53:32;47;44;
40947;PMS5003;49382;-25.924;28.194;2023-05-07T00:55:57;42;42;
40947;PMS5003;49382;-25.924;28.194;2023-05-07T00:58:23;41;41;
40947;PMS5003;49382;-25.924;28.194;2023-05-07T01:00:48;50;47;
40947;PMS5003;49382;-25.924;28.194;2023-05-07T01:03:14;46;42;
40947;PMS5003;49382;-25.924;28.194;2023-05-07T01:05:40;49;46;
40947;PMS5003;49382;-25.924;28.194;2023-05-07T01:08:04;51;48;
40947;PMS5003;49382;-25.924;28.194;2023-05-07T01:10:30;50;46;
40947;PMS5003;49382;-25.924;28.194;2023-05-07T01:12:55;49;49;
40947;PMS5003;49382;-25.924;28.194;2023-05-07T01:15:20;51;51;
40947;PMS5003;49382;-25.924;28.194;2023-05-07T01:17:46;52;51;
40947;PMS5003;49382;-25.924;28.194;2023-05-07T01:20:11;51;50;
40947;PMS5003;49382;-25.924;28.194;2023-05-07T01:22:38;52;48;
40947;PMS5003;49382;-25.924;28.194;2023-05-07T01:25:02;49;47;
40947;PMS5003;49382;-25.924;28.194;2023-05-07T01:27:28;50;48;
40947;PMS5003;49382;-25.924;28.194;2023-05-07T01:29:54;57;52;
40947;PMS5003;49382;-25.924;28.194;2023-05-07T01:32:21;54;52;
40947;PMS5003;49382;-25.924;28.194;2023-05-07T01:34:44;50;49;
40947;PMS5003;49382;-25.924;28.194;2023-05-07T01:37:10;48;47;
40947;PMS5003;49382;-25.924;28.194;2023-05-07T01:39:35;55;53;
40947;PMS5003;49382;-25.924;28.194;2023-05-07T01:42:01;60;56;
40947;PMS5003;49382;-25.924;28.194;2023-05-07T01:44:27;56;56;
40947;PMS5003;49382;-25.924;28.194;2023-05-07T01:46:52;54;53;
40947;PMS5003;49382;-25.924;28.194;2023-05-07T01:49:17;55;55;
40947;PMS5003;49382;-25.924;28.194;2023-05-07T01:51:43;59;55;
40947;PMS5003;49382;-25.924;28.194;2023-05-07T01:54:08;53;51;
40947;PMS5003;49382;-25.924;28.194;2023-05-07T01:56:34;57;53;
40947;PMS5003;49382;-25.924;28.194;2023-05-07T01:58:59;51;48;
40947;PMS5003;49382;-25.924;28.194;2023-05-07T02:01:24;47;47;
40947;PMS5003;49382;-25.924;28.194;2023-05-07T02:03:49;61;58;
40947;PMS5003;49382;-25.924;28.194;2023-05-07T02:06:15;55;54;
40947;PMS5003;49382;-25.924;28.194;2023-05-07T02:08:40;56;53;
40947;PMS5003;49382;-25.924;28.194;2023-05-07T02:11:06;56;53;
40947;PMS5003;49382;-25.924;28.194;2023-05-07T02:13:32;59;58;
40947;PMS5003;49382;-25.924;28.194;2023-05-07T02:15:57;60;56;
40947;PMS5003;49382;-25.924;28.194;2023-05-07T02:18:22;58;54;
40947;PMS5003;49382;-25.924;28.194;2023-05-07T02:20:47;64;60;
40947;PMS5003;49382;-25.924;28.194;2023-05-07T02:23:12;67;60;
40947;PMS5003;49382;-25.924;28.194;2023-05-07T02:25:38;60;56;
40947;PMS5003;49382;-25.924;28.194;2023-05-07T02:28:04;60;54;
40947;PMS5003;49382;-25.924;28.194;2023-05-07T02:30:29;54;51;
40947;PMS5003;49382;-25.924;28.194;2023-05-07T02:32:55;53;51;
40947;PMS5003;49382;-25.924;28.194;2023-05-07T02:35:20;50;47;
40947;PMS5003;49382;-25.924;28.194;2023-05-07T02:37:46;50;49;
40947;PMS5003;49382;-25.924;28.194;2023-05-07T02:40:11;54;49;
40947;PMS5003;49382;-25.924;28.194;2023-05-07T02:42:37;56;52;
40947;PMS5003;49382;-25.924;28.194;2023-05-07T02:45:02;53;49;
40947;PMS5003;49382;-25.924;28.194;2023-05-07T02:47:27;54;53;
40947;PMS5003;49382;-25.924;28.194;2023-05-07T02:49:52;50;49;
40947;PMS5003;49382;-25.924;28.194;2023-05-07T02:52:18;47;46;
40947;PMS5003;49382;-25.924;28.194;2023-05-07T02:54:43;44;43;
40947;PMS5003;49382;-25.924;28.194;2023-05-07T02:57:09;43;43;
40947;PMS5003;49382;-25.924;28.194;2023-05-07T02:59:34;48;45;
40947;PMS5003;49382;-25.924;28.194;2023-05-07T03:01:59;49;48;
40947;PMS5003;49382;-25.924;28.194;2023-05-07T03:04:24;45;45;
40947;PMS5003;49382;-25.924;28.194;2023-05-07T03:06:50;46;44;
40947;PMS5003;49382;-25.924;28.194;2023-05-07T03:09:16;46;45;
40947;PMS5003;49382;-25.924;28.194;2023-05-07T03:11:41;51;46;
40947;PMS5003;49382;-25.924;28.194;2023-05-07T03:14:08;44;44;
40947;PMS5003;49382;-25.924;28.194;2023-05-07T03:16:32;50;49;
40947;PMS5003;49382;-25.924;28.194;2023-05-07T03:18:57;49;47;
40947;PMS5003;49382;-25.924;28.194;2023-05-07T03:21:23;55;53;
40947;PMS5003;49382;-25.924;28.194;2023-05-07T03:23:49;55;50;
40947;PMS5003;49382;-25.924;28.194;2023-05-07T03:26:14;54;51;
40947;PMS5003;49382;-25.924;28.194;2023-05-07T03:28:40;52;51;
40947;PMS5003;49382;-25.924;28.194;2023-05-07T03:31:05;54;51;
40947;PMS5003;49382;-25.924;28.194;2023-05-07T03:33:32;54;50;
40947;PMS5003;49382;-25.924;28.194;2023-05-07T03:35:56;49;47;
40947;PMS5003;49382;-25.924;28.194;2023-05-07T03:38:21;50;49;
40947;PMS5003;49382;-25.924;28.194;2023-05-07T03:40:47;46;45;
40947;PMS5003;49382;-25.924;28.194;2023-05-07T03:43:12;46;46;
40947;PMS5003;49382;-25.924;28.194;2023-05-07T03:45:38;54;52;
40947;PMS5003;49382;-25.924;28.194;2023-05-07T03:48:03;50;48;
40947;PMS5003;49382;-25.924;28.194;2023-05-07T03:50:28;47;45;
40947;PMS5003;49382;-25.924;28.194;2023-05-07T03:52:54;52;49;
40947;PMS5003;49382;-25.924;28.194;2023-05-07T03:55:19;48;47;
40947;PMS5003;49382;-25.924;28.194;2023-05-07T03:57:44;52;46;
40947;PMS5003;49382;-25.924;28.194;2023-05-07T04:00:10;46;44;
40947;PMS5003;49382;-25.924;28.194;2023-05-07T04:02:35;45;44;
40947;PMS5003;49382;-25.924;28.194;2023-05-07T04:05:01;44;43;
40947;PMS5003;49382;-25.924;28.194;2023-05-07T04:07:27;48;45;
40947;PMS5003;49382;-25.924;28.194;2023-05-07T04:09:52;47;47;
40947;PMS5003;49382;-25.924;28.194;2023-05-07T04:12:18;50;46;
40947;PMS5003;49382;-25.924;28.194;2023-05-07T04:14:43;41;41;
40947;PMS5003;49382;-25.924;28.194;2023-05-07T04:17:09;43;42;
40947;PMS5003;49382;-25.924;28.194;2023-05-07T04:19:34;50;46;
40947;PMS5003;49382;-25.924;28.194;2023-05-07T04:21:59;48;46;
40947;PMS5003;49382;-25.924;28.194;2023-05-07T04:24:25;47;47;
40947;PMS5003;49382;-25.924;28.194;2023-05-07T04:26:50;52;51;
40947;PMS5003;49382;-25.924;28.194;2023-05-07T04:29:16;46;46;
40947;PMS5003;49382;-25.924;28.194;2023-05-07T04:31:41;46;46;
40947;PMS5003;49382;-25.924;28.194;2023-05-07T04:34:07;44;44;
40947;PMS5003;49382;-25.924;28.194;2023-05-07T04:36:32;48;47;
40947;PMS5003;49382;-25.924;28.194;2023-05-07T04:38:58;56;53;
40947;PMS5003;49382;-25.924;28.194;2023-05-07T04:41:23;60;56;
40947;PMS5003;49382;-25.924;28.194;2023-05-07T04:43:48;56;54;
40947;PMS5003;49382;-25.924;28.194;2023-05-07T04:46:14;56;55;
40947;PMS5003;49382;-25.924;28.194;2023-05-07T04:48:39;66;64;
40947;PMS5003;49382;-25.924;28.194;2023-05-07T04:51:05;53;52;
40947;PMS5003;49382;-25.924;28.194;2023-05-07T04:53:30;54;52;
40947;PMS5003;49382;-25.924;28.194;2023-05-07T04:55:56;53;53;
40947;PMS5003;49382;-25.924;28.194;2023-05-07T04:58:21;58;58;
40947;PMS5003;49382;-25.924;28.194;2023-05-07T05:00:46;62;62;
40947;PMS5003;49382;-25.924;28.194;2023-05-07T05:03:12;65;59;
40947;PMS5003;49382;-25.924;28.194;2023-05-07T05:05:37;63;58;
40947;PMS5003;49382;-25.924;28.194;2023-05-07T05:08:03;63;61;
40947;PMS5003;49382;-25.924;28.194;2023-05-07T05:10:29;64;64;
40947;PMS5003;49382;-25.924;28.194;2023-05-07T05:12:55;69;68;
40947;PMS5003;49382;-25.924;28.194;2023-05-07T05:15:20;61;55;
40947;PMS5003;49382;-25.924;28.194;2023-05-07T05:17:46;63;60;
40947;PMS5003;49382;-25.924;28.194;2023-05-07T05:20:12;65;61;
40947;PMS5003;49382;-25.924;28.194;2023-05-07T05:22:38;62;60;
40947;PMS5003;49382;-25.924;28.194;2023-05-07T05:25:03;64;61;
40947;PMS5003;49382;-25.924;28.194;2023-05-07T05:27:29;68;63;
40947;PMS5003;49382;-25.924;28.194;2023-05-07T05:29:54;59;56;
40947;PMS5003;49382;-25.924;28.194;2023-05-07T05:32:18;49;49;
40947;PMS5003;49382;-25.924;28.194;2023-05-07T05:34:44;38;38;
40947;PMS5003;49382;-25.924;28.194;2023-05-07T05:37:09;36;35;
40947;PMS5003;49382;-25.924;28.194;2023-05-07T05:39:34;37;35;
40947;PMS5003;49382;-25.924;28.194;2023-05-07T05:42:01;41;39;
40947;PMS5003;49382;-25.924;28.194;2023-05-07T05:44:26;34;34;
40947;PMS5003;49382;-25.924;28.194;2023-05-07T05:46:52;34;34;
40947;PMS5003;49382;-25.924;28.194;2023-05-07T05:49:17;29;28;
40947;PMS5003;49382;-25.924;28.194;2023-05-07T05:51:43;28;28;
40947;PMS5003;49382;-25.924;28.194;2023-05-07T05:54:09;31;30;
40947;PMS5003;49382;-25.924;28.194;2023-05-07T05:56:34;39;37;
40947;PMS5003;49382;-25.924;28.194;2023-05-07T05:59:00;45;44;
40947;PMS5003;49382;-25.924;28.194;2023-05-07T06:01:25;54;49;
40947;PMS5003;49382;-25.924;28.194;2023-05-07T06:03:50;55;53;
40947;PMS5003;49382;-25.924;28.194;2023-05-07T06:06:16;54;53;
40947;PMS5003;49382;-25.924;28.194;2023-05-07T06:08:42;55;54;
40947;PMS5003;49382;-25.924;28.194;2023-05-07T06:11:07;59;55;
40947;PMS5003;49382;-25.924;28.194;2023-05-07T06:13:33;58;58;
40947;PMS5003;49382;-25.924;28.194;2023-05-07T06:15:58;61;59;
40947;PMS5003;49382;-25.924;28.194;2023-05-07T06:18:23;53;52;
40947;PMS5003;49382;-25.924;28.194;2023-05-07T06:20:49;69;67;
40947;PMS5003;49382;-25.924;28.194;2023-05-07T06:23:14;60;53;
40947;PMS5003;49382;-25.924;28.194;2023-05-07T06:25:40;53;52;
40947;PMS5003;49382;-25.924;28.194;2023-05-07T06:28:06;52;52;
40947;PMS5003;49382;-25.924;28.194;2023-05-07T06:30:31;46;44;
40947;PMS5003;49382;-25.924;28.194;2023-05-07T06:32:57;47;45;
40947;PMS5003;49382;-25.924;28.194;2023-05-07T06:35:22;44;40;
40947;PMS5003;49382;-25.924;28.194;2023-05-07T06:37:47;43;37;
40947;PMS5003;49382;-25.924;28.194;2023-05-07T06:40:13;50;49;
40947;PMS5003;49382;-25.924;28.194;2023-05-07T06:42:39;42;38;
40947;PMS5003;49382;-25.924;28.194;2023-05-07T06:45:04;30;30;
40947;PMS5003;49382;-25.924;28.194;2023-05-07T06:47:29;33;33;
40947;PMS5003;49382;-25.924;28.194;2023-05-07T06:49:54;34;32;
40947;PMS5003;49382;-25.924;28.194;2023-05-07T06:52:20;24;23;
40947;PMS5003;49382;-25.924;28.194;2023-05-07T06:54:45;27;27;
40947;PMS5003;49382;-25.924;28.194;2023-05-07T06:57:10;21;21;
40947;PMS5003;49382;-25.924;28.194;2023-05-07T06:59:36;21;20;
40947;PMS5003;49382;-25.924;28.194;2023-05-07T07:02:01;26;22;
40947;PMS5003;49382;-25.924;28.194;2023-05-07T07:04:26;22;22;
40947;PMS5003;49382;-25.924;28.194;2023-05-07T07:06:53;22;20;
40947;PMS5003;49382;-25.924;28.194;2023-05-07T07:09:18;17;17;
40947;PMS5003;49382;-25.924;28.194;2023-05-07T07:11:44;14;14;
40947;PMS5003;49382;-25.924;28.194;2023-05-07T07:14:10;14;13;
40947;PMS5003;49382;-25.924;28.194;2023-05-07T07:16:36;13;13;
40947;PMS5003;49382;-25.924;28.194;2023-05-07T07:19:01;11;11;
40947;PMS5003;49382;-25.924;28.194;2023-05-07T07:21:27;10;10;
40947;PMS5003;49382;-25.924;28.194;2023-05-07T07:23:53;10;10;
40947;PMS5003;49382;-25.924;28.194;2023-05-07T07:26:19;9;9;
40947;PMS5003;49382;-25.924;28.194;2023-05-07T07:28:45;10;10;
40947;PMS5003;49382;-25.924;28.194;2023-05-07T07:31:10;9;9;
40947;PMS5003;49382;-25.924;28.194;2023-05-07T07:33:36;10;10;
40947;PMS5003;49382;-25.924;28.194;2023-05-07T07:36:02;10;10;
40947;PMS5003;49382;-25.924;28.194;2023-05-07T07:38:27;10;10;
40947;PMS5003;49382;-25.924;28.194;2023-05-07T07:40:53;8;8;
40947;PMS5003;49382;-25.924;28.194;2023-05-07T07:43:19;8;8;
40947;PMS5003;49382;-25.924;28.194;2023-05-07T07:45:45;19;19;
40947;PMS5003;49382;-25.924;28.194;2023-05-07T07:48:10;8;8;
40947;PMS5003;49382;-25.924;28.194;2023-05-07T07:50:36;8;8;
40947;PMS5003;49382;-25.924;28.194;2023-05-07T07:53:02;7;7;
40947;PMS5003;49382;-25.924;28.194;2023-05-07T07:55:28;6;6;
40947;PMS5003;49382;-25.924;28.194;2023-05-07T07:57:53;7;7;
40947;PMS5003;49382;-25.924;28.194;2023-05-07T08:00:19;9;9;
40947;PMS5003;49382;-25.924;28.194;2023-05-07T08:02:45;8;8;
40947;PMS5003;49382;-25.924;28.194;2023-05-07T08:05:11;8;8;
40947;PMS5003;49382;-25.924;28.194;2023-05-07T08:07:36;7;6;
40947;PMS5003;49382;-25.924;28.194;2023-05-07T08:10:02;8;7;
40947;PMS5003;49382;-25.924;28.194;2023-05-07T08:12:28;7;7;
40947;PMS5003;49382;-25.924;28.194;2023-05-07T08:14:53;20;19;
40947;PMS5003;49382;-25.924;28.194;2023-05-07T08:17:19;9;9;
40947;PMS5003;49382;-25.924;28.194;2023-05-07T08:19:44;6;6;
40947;PMS5003;49382;-25.924;28.194;2023-05-07T08:22:10;7;7;
40947;PMS5003;49382;-25.924;28.194;2023-05-07T08:24:36;8;8;
40947;PMS5003;49382;-25.924;28.194;2023-05-07T08:27:01;7;7;
40947;PMS5003;49382;-25.924;28.194;2023-05-07T08:29:27;4;4;
40947;PMS5003;49382;-25.924;28.194;2023-05-07T08:31:53;6;6;
40947;PMS5003;49382;-25.924;28.194;2023-05-07T08:34:19;6;6;
40947;PMS5003;49382;-25.924;28.194;2023-05-07T08:36:44;8;8;
40947;PMS5003;49382;-25.924;28.194;2023-05-07T08:39:10;6;6;
40947;PMS5003;49382;-25.924;28.194;2023-05-07T08:41:35;48;44;
40947;PMS5003;49382;-25.924;28.194;2023-05-07T08:44:01;6;6;
40947;PMS5003;49382;-25.924;28.194;2023-05-07T08:46:26;7;7;
40947;PMS5003;49382;-25.924;28.194;2023-05-07T08:48:52;6;6;
40947;PMS5003;49382;-25.924;28.194;2023-05-07T08:51:18;7;6;
40947;PMS5003;49382;-25.924;28.194;2023-05-07T08:53:44;15;11;
40947;PMS5003;49382;-25.924;28.194;2023-05-07T08:56:09;21;18;
40947;PMS5003;49382;-25.924;28.194;2023-05-07T08:58:35;112;109;
40947;PMS5003;49382;-25.924;28.194;2023-05-07T09:01:00;6;6;
40947;PMS5003;49382;-25.924;28.194;2023-05-07T09:03:26;7;7;
40947;PMS5003;49382;-25.924;28.194;2023-05-07T09:05:52;5;5;
40947;PMS5003;49382;-25.924;28.194;2023-05-07T09:08:18;6;6;
40947;PMS5003;49382;-25.924;28.194;2023-05-07T09:10:43;8;8;
40947;PMS5003;49382;-25.924;28.194;2023-05-07T09:13:09;7;7;
40947;PMS5003;49382;-25.924;28.194;2023-05-07T09:15:35;7;7;
40947;PMS5003;49382;-25.924;28.194;2023-05-07T09:18:00;8;8;
40947;PMS5003;49382;-25.924;28.194;2023-05-07T09:20:26;29;28;
40947;PMS5003;49382;-25.924;28.194;2023-05-07T09:22:52;13;13;
40947;PMS5003;49382;-25.924;28.194;2023-05-07T09:25:18;62;62;
40947;PMS5003;49382;-25.924;28.194;2023-05-07T09:27:43;8;8;
40947;PMS5003;49382;-25.924;28.194;2023-05-07T09:30:09;8;8;
40947;PMS5003;49382;-25.924;28.194;2023-05-07T09:32:35;8;8;
40947;PMS5003;49382;-25.924;28.194;2023-05-07T09:35:00;7;7;
40947;PMS5003;49382;-25.924;28.194;2023-05-07T09:37:26;7;7;
40947;PMS5003;49382;-25.924;28.194;2023-05-07T09:39:52;10;10;
40947;PMS5003;49382;-25.924;28.194;2023-05-07T09:44:43;9;8;
40947;PMS5003;49382;-25.924;28.194;2023-05-07T09:47:09;7;7;
40947;PMS5003;49382;-25.924;28.194;2023-05-07T09:49:35;11;11;
40947;PMS5003;49382;-25.924;28.194;2023-05-07T09:52:01;10;10;
40947;PMS5003;49382;-25.924;28.194;2023-05-07T09:54:26;9;9;
40947;PMS5003;49382;-25.924;28.194;2023-05-07T09:56:52;12;12;
40947;PMS5003;49382;-25.924;28.194;2023-05-07T09:59:17;7;7;
40947;PMS5003;49382;-25.924;28.194;2023-05-07T10:01:43;7;7;
40947;PMS5003;49382;-25.924;28.194;2023-05-07T10:04:09;10;10;
40947;PMS5003;49382;-25.924;28.194;2023-05-07T10:06:35;9;9;
40947;PMS5003;49382;-25.924;28.194;2023-05-07T10:09:01;11;11;
40947;PMS5003;49382;-25.924;28.194;2023-05-07T10:11:26;9;9;
40947;PMS5003;49382;-25.924;28.194;2023-05-07T10:13:52;8;8;
40947;PMS5003;49382;-25.924;28.194;2023-05-07T10:16:18;9;9;
40947;PMS5003;49382;-25.924;28.194;2023-05-07T10:18:43;11;10;
40947;PMS5003;49382;-25.924;28.194;2023-05-07T10:21:11;11;11;
40947;PMS5003;49382;-25.924;28.194;2023-05-07T10:23:35;12;12;
40947;PMS5003;49382;-25.924;28.194;2023-05-07T10:26:02;14;13;
40947;PMS5003;49382;-25.924;28.194;2023-05-07T10:28:26;19;19;
40947;PMS5003;49382;-25.924;28.194;2023-05-07T10:30:57;14;14;
40947;PMS5003;49382;-25.924;28.194;2023-05-07T10:33:19;18;18;
40947;PMS5003;49382;-25.924;28.194;2023-05-07T10:35:44;18;18;
40947;PMS5003;49382;-25.924;28.194;2023-05-07T10:38:10;10;9;
40947;PMS5003;49382;-25.924;28.194;2023-05-07T10:40:36;9;9;
40947;PMS5003;49382;-25.924;28.194;2023-05-07T10:43:02;11;11;
40947;PMS5003;49382;-25.924;28.194;2023-05-07T10:45:27;9;9;
40947;PMS5003;49382;-25.924;28.194;2023-05-07T10:50:22;12;11;
40947;PMS5003;49382;-25.924;28.194;2023-05-07T10:52:45;9;9;
40947;PMS5003;49382;-25.924;28.194;2023-05-07T10:57:36;10;10;
40947;PMS5003;49382;-25.924;28.194;2023-05-07T11:00:02;11;10;
40947;PMS5003;49382;-25.924;28.194;2023-05-07T11:12:10;10;10;
40947;PMS5003;49382;-25.924;28.194;2023-05-07T11:17:02;14;14;
40947;PMS5003;49382;-25.924;28.194;2023-05-07T11:21:54;45;45;
40947;PMS5003;49382;-25.924;28.194;2023-05-07T11:24:19;66;66;
40947;PMS5003;49382;-25.924;28.194;2023-05-07T11:26:45;23;19;
40947;PMS5003;49382;-25.924;28.194;2023-05-07T11:29:11;31;31;
40947;PMS5003;49382;-25.924;28.194;2023-05-07T11:31:35;39;38;
40947;PMS5003;49382;-25.924;28.194;2023-05-07T11:34:00;42;42;
40947;PMS5003;49382;-25.924;28.194;2023-05-07T11:36:25;35;35;
40947;PMS5003;49382;-25.924;28.194;2023-05-07T11:38:50;46;46;
40947;PMS5003;49382;-25.924;28.194;2023-05-07T11:41:16;44;44;
40947;PMS5003;49382;-25.924;28.194;2023-05-07T11:46:07;42;42;
40947;PMS5003;49382;-25.924;28.194;2023-05-07T11:48:30;38;38;
40947;PMS5003;49382;-25.924;28.194;2023-05-07T11:51:00;41;41;
40947;PMS5003;49382;-25.924;28.194;2023-05-07T11:53:22;41;41;
40947;PMS5003;49382;-25.924;28.194;2023-05-07T11:55:46;37;37;
40947;PMS5003;49382;-25.924;28.194;2023-05-07T11:58:11;41;41;
40947;PMS5003;49382;-25.924;28.194;2023-05-07T12:00:36;42;42;
40947;PMS5003;49382;-25.924;28.194;2023-05-07T12:03:03;44;44;
40947;PMS5003;49382;-25.924;28.194;2023-05-07T12:05:26;47;47;
40947;PMS5003;49382;-25.924;28.194;2023-05-07T12:07:55;29;29;
40947;PMS5003;49382;-25.924;28.194;2023-05-07T12:10:17;12;12;
40947;PMS5003;49382;-25.924;28.194;2023-05-07T12:12:45;12;12;
40947;PMS5003;49382;-25.924;28.194;2023-05-07T12:15:08;24;24;
40947;PMS5003;49382;-25.924;28.194;2023-05-07T12:17:33;32;32;
40947;PMS5003;49382;-25.924;28.194;2023-05-07T12:19:58;26;26;
40947;PMS5003;49382;-25.924;28.194;2023-05-07T12:22:23;66;65;
40947;PMS5003;49382;-25.924;28.194;2023-05-07T12:24:48;29;29;
40947;PMS5003;49382;-25.924;28.194;2023-05-07T12:27:14;12;11;
40947;PMS5003;49382;-25.924;28.194;2023-05-07T12:29:40;10;10;
40947;PMS5003;49382;-25.924;28.194;2023-05-07T12:32:05;11;11;
40947;PMS5003;49382;-25.924;28.194;2023-05-07T12:34:31;10;10;
40947;PMS5003;49382;-25.924;28.194;2023-05-07T12:36:57;11;11;
40947;PMS5003;49382;-25.924;28.194;2023-05-07T12:39:23;10;10;
40947;PMS5003;49382;-25.924;28.194;2023-05-07T12:44:15;10;10;
40947;PMS5003;49382;-25.924;28.194;2023-05-07T12:46:40;10;10;
40947;PMS5003;49382;-25.924;28.194;2023-05-07T12:49:06;11;11;
40947;PMS5003;49382;-25.924;28.194;2023-05-07T12:51:31;11;11;
40947;PMS5003;49382;-25.924;28.194;2023-05-07T12:53:57;11;11;
40947;PMS5003;49382;-25.924;28.194;2023-05-07T12:56:23;10;10;
40947;PMS5003;49382;-25.924;28.194;2023-05-07T12:58:49;11;11;
40947;PMS5003;49382;-25.924;28.194;2023-05-07T13:01:15;12;12;
40947;PMS5003;49382;-25.924;28.194;2023-05-07T13:03:40;11;11;
40947;PMS5003;49382;-25.924;28.194;2023-05-07T13:06:07;14;13;
40947;PMS5003;49382;-25.924;28.194;2023-05-07T13:08:33;12;12;
40947;PMS5003;49382;-25.924;28.194;2023-05-07T13:10:58;13;13;
40947;PMS5003;49382;-25.924;28.194;2023-05-07T13:13:24;13;13;
40947;PMS5003;49382;-25.924;28.194;2023-05-07T13:15:49;12;12;
40947;PMS5003;49382;-25.924;28.194;2023-05-07T13:18:15;12;12;
40947;PMS5003;49382;-25.924;28.194;2023-05-07T13:20:41;12;12;
40947;PMS5003;49382;-25.924;28.194;2023-05-07T13:23:08;14;14;
40947;PMS5003;49382;-25.924;28.194;2023-05-07T13:25:32;13;13;
40947;PMS5003;49382;-25.924;28.194;2023-05-07T13:27:58;15;14;
40947;PMS5003;49382;-25.924;28.194;2023-05-07T13:30:24;12;12;
40947;PMS5003;49382;-25.924;28.194;2023-05-07T13:32:50;16;15;
40947;PMS5003;49382;-25.924;28.194;2023-05-07T13:35:16;13;13;
40947;PMS5003;49382;-25.924;28.194;2023-05-07T13:37:41;16;16;
40947;PMS5003;49382;-25.924;28.194;2023-05-07T13:40:07;16;16;
40947;PMS5003;49382;-25.924;28.194;2023-05-07T13:42:33;15;15;
40947;PMS5003;49382;-25.924;28.194;2023-05-07T13:44:58;15;15;
40947;PMS5003;49382;-25.924;28.194;2023-05-07T13:47:24;14;14;
40947;PMS5003;49382;-25.924;28.194;2023-05-07T13:49:50;14;14;
40947;PMS5003;49382;-25.924;28.194;2023-05-07T13:52:16;14;14;
40947;PMS5003;49382;-25.924;28.194;2023-05-07T13:54:42;15;15;
40947;PMS5003;49382;-25.924;28.194;2023-05-07T13:57:07;14;14;
40947;PMS5003;49382;-25.924;28.194;2023-05-07T13:59:33;13;13;
40947;PMS5003;49382;-25.924;28.194;2023-05-07T14:01:59;13;13;
40947;PMS5003;49382;-25.924;28.194;2023-05-07T14:04:25;15;15;
40947;PMS5003;49382;-25.924;28.194;2023-05-07T14:06:50;13;13;
40947;PMS5003;49382;-25.924;28.194;2023-05-07T14:09:16;14;14;
40947;PMS5003;49382;-25.924;28.194;2023-05-07T14:11:41;14;14;
40947;PMS5003;49382;-25.924;28.194;2023-05-07T14:14:07;15;15;
40947;PMS5003;49382;-25.924;28.194;2023-05-07T14:16:33;15;15;
40947;PMS5003;49382;-25.924;28.194;2023-05-07T14:18:59;15;15;
40947;PMS5003;49382;-25.924;28.194;2023-05-07T14:21:25;17;16;
40947;PMS5003;49382;-25.924;28.194;2023-05-07T14:23:50;14;14;
40947;PMS5003;49382;-25.924;28.194;2023-05-07T14:26:16;15;15;
40947;PMS5003;49382;-25.924;28.194;2023-05-07T14:28:42;15;15;
40947;PMS5003;49382;-25.924;28.194;2023-05-07T14:31:08;14;14;
40947;PMS5003;49382;-25.924;28.194;2023-05-07T14:33:34;11;11;
40947;PMS5003;49382;-25.924;28.194;2023-05-07T14:35:59;13;13;
40947;PMS5003;49382;-25.924;28.194;2023-05-07T14:38:25;12;12;
40947;PMS5003;49382;-25.924;28.194;2023-05-07T14:40:51;11;11;
40947;PMS5003;49382;-25.924;28.194;2023-05-07T14:43:17;12;12;
40947;PMS5003;49382;-25.924;28.194;2023-05-07T14:45:42;12;12;
40947;PMS5003;49382;-25.924;28.194;2023-05-07T14:48:08;11;11;
40947;PMS5003;49382;-25.924;28.194;2023-05-07T14:50:34;11;11;
40947;PMS5003;49382;-25.924;28.194;2023-05-07T14:53:00;11;10;
40947;PMS5003;49382;-25.924;28.194;2023-05-07T14:55:25;12;12;
40947;PMS5003;49382;-25.924;28.194;2023-05-07T14:57:51;12;11;
40947;PMS5003;49382;-25.924;28.194;2023-05-07T15:00:17;11;11;
40947;PMS5003;49382;-25.924;28.194;2023-05-07T15:02:43;10;10;
40947;PMS5003;49382;-25.924;28.194;2023-05-07T15:05:09;10;10;
40947;PMS5003;49382;-25.924;28.194;2023-05-07T15:07:35;10;10;
40947;PMS5003;49382;-25.924;28.194;2023-05-07T15:10:00;10;10;
40947;PMS5003;49382;-25.924;28.194;2023-05-07T15:12:26;10;9;
40947;PMS5003;49382;-25.924;28.194;2023-05-07T15:14:52;11;11;
40947;PMS5003;49382;-25.924;28.194;2023-05-07T15:17:18;11;11;
40947;PMS5003;49382;-25.924;28.194;2023-05-07T15:19:43;9;9;
40947;PMS5003;49382;-25.924;28.194;2023-05-07T15:22:09;10;10;
40947;PMS5003;49382;-25.924;28.194;2023-05-07T15:24:35;14;13;
40947;PMS5003;49382;-25.924;28.194;2023-05-07T15:27:01;11;11;
40947;PMS5003;49382;-25.924;28.194;2023-05-07T15:29:27;23;23;
40947;PMS5003;49382;-25.924;28.194;2023-05-07T15:31:52;28;27;
40947;PMS5003;49382;-25.924;28.194;2023-05-07T15:34:17;22;22;
40947;PMS5003;49382;-25.924;28.194;2023-05-07T15:36:43;22;22;
40947;PMS5003;49382;-25.924;28.194;2023-05-07T15:39:09;16;16;
40947;PMS5003;49382;-25.924;28.194;2023-05-07T15:41:35;13;13;
40947;PMS5003;49382;-25.924;28.194;2023-05-07T15:44:00;11;10;
40947;PMS5003;49382;-25.924;28.194;2023-05-07T15:46:26;17;17;
40947;PMS5003;49382;-25.924;28.194;2023-05-07T15:48:52;14;14;
40947;PMS5003;49382;-25.924;28.194;2023-05-07T15:51:18;13;13;
40947;PMS5003;49382;-25.924;28.194;2023-05-07T15:53:44;11;11;
40947;PMS5003;49382;-25.924;28.194;2023-05-07T15:56:10;14;13;
40947;PMS5003;49382;-25.924;28.194;2023-05-07T15:58:36;14;13;
40947;PMS5003;49382;-25.924;28.194;2023-05-07T16:01:02;17;16;
40947;PMS5003;49382;-25.924;28.194;2023-05-07T16:03:27;13;13;